sensor_id;sensor_type;location;lat;lon;timestamp;temperature;humidity
6654;DHT22;3363;50.942;7.034;2023-05-07T00:01:52;16.60;95.90
6654;DHT22;3363;50.942;7.034;2023-05-07T00:04:18;16.60;95.90
6654;DHT22;3363;50.942;7.034;2023-05-07T00:06:46;16.60;96.10
6654;DHT22;3363;50.942;7.034;2023-05-07T00:09:14;16.60;96.30
6654;DHT22;3363;50.942;7.034;2023-05-07T00:11:41;16.60;96.30
6654;DHT22;3363;50.942;7.034;2023-05-07T00:14:08;16.60;96.40
6654;DHT22;3363;50.942;7.034;2023-05-07T00:16:35;16.60;96.60
6654;DHT22;3363;50.942;7.034;2023-05-07T00:19:01;16.60;96.90
6654;DHT22;3363;50.942;7.034;2023-05-07T00:21:28;16.50;96.80
6654;DHT22;3363;50.942;7.034;2023-05-07T00:23:55;16.50;97.00
6654;DHT22;3363;50.942;7.034;2023-05-07T00:26:23;16.50;97.00
6654;DHT22;3363;50.942;7.034;2023-05-07T00:28:50;16.50;97.20
6654;DHT22;3363;50.942;7.034;2023-05-07T00:31:17;16.50;96.90
6654;DHT22;3363;50.942;7.034;2023-05-07T00:33:43;16.50;97.30
6654;DHT22;3363;50.942;7.034;2023-05-07T00:36:10;16.50;96.90
6654;DHT22;3363;50.942;7.034;2023-05-07T00:38:37;16.50;97.10
6654;DHT22;3363;50.942;7.034;2023-05-07T00:41:04;16.50;97.00
6654;DHT22;3363;50.942;7.034;2023-05-07T00:43:32;16.50;97.20
6654;DHT22;3363;50.942;7.034;2023-05-07T00:45:58;16.50;97.20
6654;DHT22;3363;50.942;7.034;2023-05-07T00:48:25;16.50;97.30
6654;DHT22;3363;50.942;7.034;2023-05-07T00:50:52;16.50;97.20
6654;DHT22;3363;50.942;7.034;2023-05-07T00:53:19;16.50;97.20
6654;DHT22;3363;50.942;7.034;2023-05-07T00:55:46;16.50;97.10
6654;DHT22;3363;50.942;7.034;2023-05-07T00:58:13;16.50;97.10
6654;DHT22;3363;50.942;7.034;2023-05-07T01:00:41;16.40;97.20
6654;DHT22;3363;50.942;7.034;2023-05-07T01:03:08;16.40;97.50
6654;DHT22;3363;50.942;7.034;2023-05-07T01:05:34;16.40;97.50
6654;DHT22;3363;50.942;7.034;2023-05-07T01:08:01;16.40;97.30
6654;DHT22;3363;50.942;7.034;2023-05-07T01:10:28;16.40;97.30
6654;DHT22;3363;50.942;7.034;2023-05-07T01:12:57;16.40;97.50
6654;DHT22;3363;50.942;7.034;2023-05-07T01:15:25;16.40;97.50
6654;DHT22;3363;50.942;7.034;2023-05-07T01:17:53;16.50;97.50
6654;DHT22;3363;50.942;7.034;2023-05-07T01:20:20;16.40;97.50
6654;DHT22;3363;50.942;7.034;2023-05-07T01:22:48;16.40;97.50
6654;DHT22;3363;50.942;7.034;2023-05-07T01:25:15;16.40;97.70
6654;DHT22;3363;50.942;7.034;2023-05-07T01:27:42;16.30;98.10
6654;DHT22;3363;50.942;7.034;2023-05-07T01:30:09;16.20;99.30
6654;DHT22;3363;50.942;7.034;2023-05-07T01:32:37;16.20;99.00
6654;DHT22;3363;50.942;7.034;2023-05-07T01:35:05;16.30;99.10
6654;DHT22;3363;50.942;7.034;2023-05-07T01:37:33;16.30;99.10
6654;DHT22;3363;50.942;7.034;2023-05-07T01:40:02;16.30;99.20
6654;DHT22;3363;50.942;7.034;2023-05-07T01:42:30;16.30;98.70
6654;DHT22;3363;50.942;7.034;2023-05-07T01:44:57;16.30;98.90
6654;DHT22;3363;50.942;7.034;2023-05-07T01:47:23;16.30;98.70
6654;DHT22;3363;50.942;7.034;2023-05-07T01:49:51;16.30;98.70
6654;DHT22;3363;50.942;7.034;2023-05-07T01:52:17;16.30;98.60
6654;DHT22;3363;50.942;7.034;2023-05-07T01:54:44;16.30;98.30
6654;DHT22;3363;50.942;7.034;2023-05-07T01:57:12;16.30;98.50
6654;DHT22;3363;50.942;7.034;2023-05-07T01:59:39;16.30;98.40
6654;DHT22;3363;50.942;7.034;2023-05-07T02:02:05;16.30;98.60
6654;DHT22;3363;50.942;7.034;2023-05-07T02:04:32;16.30;98.10
6654;DHT22;3363;50.942;7.034;2023-05-07T02:06:59;16.30;98.70
6654;DHT22;3363;50.942;7.034;2023-05-07T02:09:25;16.20;98.10
6654;DHT22;3363;50.942;7.034;2023-05-07T02:11:52;16.20;98.20
6654;DHT22;3363;50.942;7.034;2023-05-07T02:14:20;16.20;98.10
6654;DHT22;3363;50.942;7.034;2023-05-07T02:16:46;16.20;98.20
6654;DHT22;3363;50.942;7.034;2023-05-07T02:19:13;16.20;98.60
6654;DHT22;3363;50.942;7.034;2023-05-07T02:21:40;16.20;98.10
6654;DHT22;3363;50.942;7.034;2023-05-07T02:24:06;16.20;98.60
6654;DHT22;3363;50.942;7.034;2023-05-07T02:26:33;16.10;98.30
6654;DHT22;3363;50.942;7.034;2023-05-07T02:29:00;16.10;98.10
6654;DHT22;3363;50.942;7.034;2023-05-07T02:31:28;16.10;98.30
6654;DHT22;3363;50.942;7.034;2023-05-07T02:33:54;16.10;98.70
6654;DHT22;3363;50.942;7.034;2023-05-07T02:36:21;16.10;98.20
6654;DHT22;3363;50.942;7.034;2023-05-07T02:38:48;16.10;98.30
6654;DHT22;3363;50.942;7.034;2023-05-07T02:41:14;16.10;98.20
6654;DHT22;3363;50.942;7.034;2023-05-07T02:43:41;16.10;98.20
6654;DHT22;3363;50.942;7.034;2023-05-07T02:46:08;16.10;98.00
6654;DHT22;3363;50.942;7.034;2023-05-07T02:48:36;16.00;98.00
6654;DHT22;3363;50.942;7.034;2023-05-07T02:51:03;16.10;97.90
6654;DHT22;3363;50.942;7.034;2023-05-07T02:53:30;16.00;98.10
6654;DHT22;3363;50.942;7.034;2023-05-07T02:55:58;16.00;97.80
6654;DHT22;3363;50.942;7.034;2023-05-07T02:58:25;16.00;97.80
6654;DHT22;3363;50.942;7.034;2023-05-07T03:00:51;16.00;97.60
6654;DHT22;3363;50.942;7.034;2023-05-07T03:03:19;16.00;97.70
6654;DHT22;3363;50.942;7.034;2023-05-07T03:05:47;16.00;97.70
6654;DHT22;3363;50.942;7.034;2023-05-07T03:08:14;16.00;97.60
6654;DHT22;3363;50.942;7.034;2023-05-07T03:10:41;16.00;97.80
6654;DHT22;3363;50.942;7.034;2023-05-07T03:13:07;16.00;97.60
6654;DHT22;3363;50.942;7.034;2023-05-07T03:15:34;16.00;97.50
6654;DHT22;3363;50.942;7.034;2023-05-07T03:18:00;16.00;97.50
6654;DHT22;3363;50.942;7.034;2023-05-07T03:20:27;16.00;97.70
6654;DHT22;3363;50.942;7.034;2023-05-07T03:22:55;16.00;97.50
6654;DHT22;3363;50.942;7.034;2023-05-07T03:25:22;16.00;97.70
6654;DHT22;3363;50.942;7.034;2023-05-07T03:27:49;15.90;97.70
6654;DHT22;3363;50.942;7.034;2023-05-07T03:30:15;15.60;99.00
6654;DHT22;3363;50.942;7.034;2023-05-07T03:32:42;15.60;99.90
6654;DHT22;3363;50.942;7.034;2023-05-07T03:35:08;15.70;99.90
6654;DHT22;3363;50.942;7.034;2023-05-07T03:37:35;15.80;99.90
6654;DHT22;3363;50.942;7.034;2023-05-07T03:40:04;15.80;99.60
6654;DHT22;3363;50.942;7.034;2023-05-07T03:42:30;15.80;99.40
6654;DHT22;3363;50.942;7.034;2023-05-07T03:44:57;15.80;98.90
6654;DHT22;3363;50.942;7.034;2023-05-07T03:47:24;15.80;98.60
6654;DHT22;3363;50.942;7.034;2023-05-07T03:49:50;15.80;98.60
6654;DHT22;3363;50.942;7.034;2023-05-07T03:52:19;15.80;98.90
6654;DHT22;3363;50.942;7.034;2023-05-07T03:54:49;15.90;98.60
6654;DHT22;3363;50.942;7.034;2023-05-07T03:57:17;15.80;98.40
6654;DHT22;3363;50.942;7.034;2023-05-07T03:59:43;15.80;98.40
6654;DHT22;3363;50.942;7.034;2023-05-07T04:02:10;15.80;98.90
6654;DHT22;3363;50.942;7.034;2023-05-07T04:04:37;15.80;98.40
6654;DHT22;3363;50.942;7.034;2023-05-07T04:07:03;15.80;98.80
6654;DHT22;3363;50.942;7.034;2023-05-07T04:09:30;15.80;98.30
6654;DHT22;3363;50.942;7.034;2023-05-07T04:11:56;15.80;98.20
6654;DHT22;3363;50.942;7.034;2023-05-07T04:14:24;15.80;98.20
6654;DHT22;3363;50.942;7.034;2023-05-07T04:16:51;15.70;98.10
6654;DHT22;3363;50.942;7.034;2023-05-07T04:19:18;15.80;98.20
6654;DHT22;3363;50.942;7.034;2023-05-07T04:21:45;15.80;98.20
6654;DHT22;3363;50.942;7.034;2023-05-07T04:24:11;15.80;98.60
6654;DHT22;3363;50.942;7.034;2023-05-07T04:26:38;15.70;98.30
6654;DHT22;3363;50.942;7.034;2023-05-07T04:29:05;15.70;97.90
6654;DHT22;3363;50.942;7.034;2023-05-07T04:31:33;15.70;98.10
6654;DHT22;3363;50.942;7.034;2023-05-07T04:34:00;15.70;97.80
6654;DHT22;3363;50.942;7.034;2023-05-07T04:36:26;15.70;97.60
6654;DHT22;3363;50.942;7.034;2023-05-07T04:38:54;15.60;98.80
6654;DHT22;3363;50.942;7.034;2023-05-07T04:41:21;15.60;99.40
6654;DHT22;3363;50.942;7.034;2023-05-07T04:43:47;15.70;99.10
6654;DHT22;3363;50.942;7.034;2023-05-07T04:46:14;15.70;99.10
6654;DHT22;3363;50.942;7.034;2023-05-07T04:48:42;15.70;98.80
6654;DHT22;3363;50.942;7.034;2023-05-07T04:51:09;15.70;98.80
6654;DHT22;3363;50.942;7.034;2023-05-07T04:53:36;15.70;99.30
6654;DHT22;3363;50.942;7.034;2023-05-07T04:56:03;15.70;98.40
6654;DHT22;3363;50.942;7.034;2023-05-07T04:58:30;15.70;98.50
6654;DHT22;3363;50.942;7.034;2023-05-07T05:00:57;15.70;98.30
6654;DHT22;3363;50.942;7.034;2023-05-07T05:03:23;15.80;98.30
6654;DHT22;3363;50.942;7.034;2023-05-07T05:05:52;15.70;98.10
6654;DHT22;3363;50.942;7.034;2023-05-07T05:08:19;15.80;98.10
6654;DHT22;3363;50.942;7.034;2023-05-07T05:10:45;15.80;98.40
6654;DHT22;3363;50.942;7.034;2023-05-07T05:13:13;15.80;98.30
6654;DHT22;3363;50.942;7.034;2023-05-07T05:15:40;15.80;97.80
6654;DHT22;3363;50.942;7.034;2023-05-07T05:18:07;15.80;97.90
6654;DHT22;3363;50.942;7.034;2023-05-07T05:20:33;15.80;98.00
6654;DHT22;3363;50.942;7.034;2023-05-07T05:23:01;15.80;98.30
6654;DHT22;3363;50.942;7.034;2023-05-07T05:25:28;15.80;98.00
6654;DHT22;3363;50.942;7.034;2023-05-07T05:27:55;15.80;98.30
6654;DHT22;3363;50.942;7.034;2023-05-07T05:30:21;15.80;98.40
6654;DHT22;3363;50.942;7.034;2023-05-07T05:32:48;15.80;98.50
6654;DHT22;3363;50.942;7.034;2023-05-07T05:35:15;15.80;99.00
6654;DHT22;3363;50.942;7.034;2023-05-07T05:37:41;15.80;98.70
6654;DHT22;3363;50.942;7.034;2023-05-07T05:40:10;15.90;99.90
6654;DHT22;3363;50.942;7.034;2023-05-07T05:42:37;15.70;99.90
6654;DHT22;3363;50.942;7.034;2023-05-07T05:45:04;15.70;99.90
6654;DHT22;3363;50.942;7.034;2023-05-07T05:47:31;15.80;99.90
6654;DHT22;3363;50.942;7.034;2023-05-07T05:49:57;15.90;99.90
6654;DHT22;3363;50.942;7.034;2023-05-07T05:52:24;15.80;99.90
6654;DHT22;3363;50.942;7.034;2023-05-07T05:54:50;15.80;99.90
6654;DHT22;3363;50.942;7.034;2023-05-07T05:57:18;15.80;99.90
6654;DHT22;3363;50.942;7.034;2023-05-07T05:59:46;15.80;99.90
6654;DHT22;3363;50.942;7.034;2023-05-07T06:02:12;15.80;99.90
6654;DHT22;3363;50.942;7.034;2023-05-07T06:04:39;15.80;99.90
6654;DHT22;3363;50.942;7.034;2023-05-07T06:07:06;15.80;99.90
6654;DHT22;3363;50.942;7.034;2023-05-07T06:09:32;15.70;99.90
6654;DHT22;3363;50.942;7.034;2023-05-07T06:11:59;15.80;99.90
6654;DHT22;3363;50.942;7.034;2023-05-07T06:14:27;15.80;99.90
6654;DHT22;3363;50.942;7.034;2023-05-07T06:16:54;15.70;99.90
6654;DHT22;3363;50.942;7.034;2023-05-07T06:19:20;15.70;99.90
6654;DHT22;3363;50.942;7.034;2023-05-07T06:21:49;15.80;99.90
6654;DHT22;3363;50.942;7.034;2023-05-07T06:24:15;15.80;99.90
6654;DHT22;3363;50.942;7.034;2023-05-07T06:26:42;15.80;99.90
6654;DHT22;3363;50.942;7.034;2023-05-07T06:29:09;15.80;99.90
6654;DHT22;3363;50.942;7.034;2023-05-07T06:31:37;15.80;99.90
6654;DHT22;3363;50.942;7.034;2023-05-07T06:34:03;15.90;99.90
6654;DHT22;3363;50.942;7.034;2023-05-07T06:36:30;16.00;99.90
6654;DHT22;3363;50.942;7.034;2023-05-07T06:38:57;16.00;99.90
6654;DHT22;3363;50.942;7.034;2023-05-07T06:41:23;16.10;99.90
6654;DHT22;3363;50.942;7.034;2023-05-07T06:43:51;16.20;99.90
6654;DHT22;3363;50.942;7.034;2023-05-07T06:46:17;16.00;99.90
6654;DHT22;3363;50.942;7.034;2023-05-07T06:48:45;16.00;99.90
6654;DHT22;3363;50.942;7.034;2023-05-07T06:51:12;16.20;99.90
6654;DHT22;3363;50.942;7.034;2023-05-07T06:53:39;16.30;99.90
6654;DHT22;3363;50.942;7.034;2023-05-07T06:56:05;16.30;99.90
6654;DHT22;3363;50.942;7.034;2023-05-07T06:58:32;16.30;99.90
6654;DHT22;3363;50.942;7.034;2023-05-07T07:00:59;16.30;99.90
6654;DHT22;3363;50.942;7.034;2023-05-07T07:03:26;16.40;99.90
6654;DHT22;3363;50.942;7.034;2023-05-07T07:05:54;16.40;99.90
6654;DHT22;3363;50.942;7.034;2023-05-07T07:08:21;16.40;99.90
6654;DHT22;3363;50.942;7.034;2023-05-07T07:10:48;16.50;99.90
6654;DHT22;3363;50.942;7.034;2023-05-07T07:13:15;16.50;99.90
6654;DHT22;3363;50.942;7.034;2023-05-07T07:15:41;16.60;99.90
6654;DHT22;3363;50.942;7.034;2023-05-07T07:18:08;16.60;99.90
6654;DHT22;3363;50.942;7.034;2023-05-07T07:20:35;16.60;99.90
6654;DHT22;3363;50.942;7.034;2023-05-07T07:23:03;16.70;99.90
6654;DHT22;3363;50.942;7.034;2023-05-07T07:25:30;16.60;99.90
6654;DHT22;3363;50.942;7.034;2023-05-07T07:27:56;16.70;99.90
6654;DHT22;3363;50.942;7.034;2023-05-07T07:30:23;16.70;99.90
6654;DHT22;3363;50.942;7.034;2023-05-07T07:32:50;16.70;99.90
6654;DHT22;3363;50.942;7.034;2023-05-07T07:35:17;16.70;99.90
6654;DHT22;3363;50.942;7.034;2023-05-07T07:37:44;16.70;99.90
6654;DHT22;3363;50.942;7.034;2023-05-07T07:40:13;16.80;99.20
6654;DHT22;3363;50.942;7.034;2023-05-07T07:42:40;16.90;96.80
6654;DHT22;3363;50.942;7.034;2023-05-07T07:45:07;16.90;98.50
6654;DHT22;3363;50.942;7.034;2023-05-07T07:47:34;17.00;98.80
6654;DHT22;3363;50.942;7.034;2023-05-07T07:50:00;17.00;95.00
6654;DHT22;3363;50.942;7.034;2023-05-07T07:52:27;17.10;94.70
6654;DHT22;3363;50.942;7.034;2023-05-07T07:54:54;17.30;99.90
6654;DHT22;3363;50.942;7.034;2023-05-07T07:57:22;17.30;93.20
6654;DHT22;3363;50.942;7.034;2023-05-07T07:59:49;17.40;92.20
6654;DHT22;3363;50.942;7.034;2023-05-07T08:02:15;17.50;95.90
6654;DHT22;3363;50.942;7.034;2023-05-07T08:04:42;17.50;88.20
6654;DHT22;3363;50.942;7.034;2023-05-07T08:07:09;17.70;91.40
6654;DHT22;3363;50.942;7.034;2023-05-07T08:09:36;17.60;90.40
6654;DHT22;3363;50.942;7.034;2023-05-07T08:12:03;17.60;88.00
6654;DHT22;3363;50.942;7.034;2023-05-07T08:14:31;17.60;85.20
6654;DHT22;3363;50.942;7.034;2023-05-07T08:16:58;17.60;85.40
6654;DHT22;3363;50.942;7.034;2023-05-07T08:19:25;17.50;88.10
6654;DHT22;3363;50.942;7.034;2023-05-07T08:21:51;17.50;85.20
6654;DHT22;3363;50.942;7.034;2023-05-07T08:24:18;17.50;84.40
6654;DHT22;3363;50.942;7.034;2023-05-07T08:26:44;17.50;83.30
6654;DHT22;3363;50.942;7.034;2023-05-07T08:29:11;17.50;85.10
6654;DHT22;3363;50.942;7.034;2023-05-07T08:31:39;17.50;85.60
6654;DHT22;3363;50.942;7.034;2023-05-07T08:34:06;17.50;85.20
6654;DHT22;3363;50.942;7.034;2023-05-07T08:36:33;17.50;84.60
6654;DHT22;3363;50.942;7.034;2023-05-07T08:38:59;17.60;83.10
6654;DHT22;3363;50.942;7.034;2023-05-07T08:41:26;17.60;83.40
6654;DHT22;3363;50.942;7.034;2023-05-07T08:43:53;17.60;82.80
6654;DHT22;3363;50.942;7.034;2023-05-07T08:46:24;17.70;92.10
6654;DHT22;3363;50.942;7.034;2023-05-07T08:48:52;17.70;86.10
6654;DHT22;3363;50.942;7.034;2023-05-07T08:51:20;17.70;88.70
6654;DHT22;3363;50.942;7.034;2023-05-07T08:53:47;17.70;82.60
6654;DHT22;3363;50.942;7.034;2023-05-07T08:56:15;17.70;81.30
6654;DHT22;3363;50.942;7.034;2023-05-07T08:58:41;17.80;83.90
6654;DHT22;3363;50.942;7.034;2023-05-07T09:01:09;18.00;89.40
6654;DHT22;3363;50.942;7.034;2023-05-07T09:03:36;18.10;93.50
6654;DHT22;3363;50.942;7.034;2023-05-07T09:06:05;18.20;82.60
6654;DHT22;3363;50.942;7.034;2023-05-07T09:08:32;18.10;82.40
6654;DHT22;3363;50.942;7.034;2023-05-07T09:10:59;18.20;84.90
6654;DHT22;3363;50.942;7.034;2023-05-07T09:13:27;18.20;79.90
6654;DHT22;3363;50.942;7.034;2023-05-07T09:15:54;18.30;77.90
6654;DHT22;3363;50.942;7.034;2023-05-07T09:18:21;18.40;81.80
6654;DHT22;3363;50.942;7.034;2023-05-07T09:20:47;18.50;77.80
6654;DHT22;3363;50.942;7.034;2023-05-07T09:23:15;18.70;79.70
6654;DHT22;3363;50.942;7.034;2023-05-07T09:25:42;18.60;74.80
6654;DHT22;3363;50.942;7.034;2023-05-07T09:28:08;18.60;76.20
6654;DHT22;3363;50.942;7.034;2023-05-07T09:30:35;18.70;74.40
6654;DHT22;3363;50.942;7.034;2023-05-07T09:33:03;18.70;74.10
6654;DHT22;3363;50.942;7.034;2023-05-07T09:35:30;18.80;75.20
6654;DHT22;3363;50.942;7.034;2023-05-07T09:37:57;18.90;72.50
6654;DHT22;3363;50.942;7.034;2023-05-07T09:40:26;18.90;77.60
6654;DHT22;3363;50.942;7.034;2023-05-07T09:42:53;19.00;77.20
6654;DHT22;3363;50.942;7.034;2023-05-07T09:45:24;19.20;68.10
6654;DHT22;3363;50.942;7.034;2023-05-07T09:47:53;19.30;68.40
6654;DHT22;3363;50.942;7.034;2023-05-07T09:50:20;19.40;75.80
6654;DHT22;3363;50.942;7.034;2023-05-07T09:52:51;19.40;67.20
6654;DHT22;3363;50.942;7.034;2023-05-07T09:55:18;19.60;65.80
6654;DHT22;3363;50.942;7.034;2023-05-07T09:57:46;19.80;64.00
6654;DHT22;3363;50.942;7.034;2023-05-07T10:00:14;20.00;66.10
6654;DHT22;3363;50.942;7.034;2023-05-07T10:02:41;20.10;65.50
6654;DHT22;3363;50.942;7.034;2023-05-07T10:05:13;20.30;63.40
6654;DHT22;3363;50.942;7.034;2023-05-07T10:07:40;20.30;63.30
6654;DHT22;3363;50.942;7.034;2023-05-07T10:10:08;20.20;60.40
6654;DHT22;3363;50.942;7.034;2023-05-07T10:12:35;20.20;62.80
6654;DHT22;3363;50.942;7.034;2023-05-07T10:15:06;20.20;60.90
6654;DHT22;3363;50.942;7.034;2023-05-07T10:17:34;20.30;61.10
6654;DHT22;3363;50.942;7.034;2023-05-07T10:20:01;20.30;62.90
6654;DHT22;3363;50.942;7.034;2023-05-07T10:22:29;20.20;61.70
6654;DHT22;3363;50.942;7.034;2023-05-07T10:24:56;20.30;59.60
6654;DHT22;3363;50.942;7.034;2023-05-07T10:27:25;20.30;58.40
6654;DHT22;3363;50.942;7.034;2023-05-07T10:29:56;20.20;57.70
6654;DHT22;3363;50.942;7.034;2023-05-07T10:32:30;20.20;61.50
6654;DHT22;3363;50.942;7.034;2023-05-07T10:35:00;20.40;61.00
6654;DHT22;3363;50.942;7.034;2023-05-07T10:37:27;20.30;61.20
6654;DHT22;3363;50.942;7.034;2023-05-07T10:39:54;20.50;61.90
6654;DHT22;3363;50.942;7.034;2023-05-07T10:42:22;20.70;62.40
6654;DHT22;3363;50.942;7.034;2023-05-07T10:44:49;20.90;58.80
6654;DHT22;3363;50.942;7.034;2023-05-07T10:47:16;21.10;58.50
6654;DHT22;3363;50.942;7.034;2023-05-07T10:52:26;21.20;59.00
6654;DHT22;3363;50.942;7.034;2023-05-07T10:57:44;21.00;56.90
6654;DHT22;3363;50.942;7.034;2023-05-07T11:03:05;20.70;63.80
6654;DHT22;3363;50.942;7.034;2023-05-07T11:05:32;20.70;54.60
6654;DHT22;3363;50.942;7.034;2023-05-07T11:08:01;20.90;54.90
6654;DHT22;3363;50.942;7.034;2023-05-07T11:13:13;21.40;53.90
6654;DHT22;3363;50.942;7.034;2023-05-07T11:15:44;21.20;53.70
6654;DHT22;3363;50.942;7.034;2023-05-07T11:18:11;21.30;53.40
6654;DHT22;3363;50.942;7.034;2023-05-07T11:20:44;21.30;54.00
6654;DHT22;3363;50.942;7.034;2023-05-07T11:23:23;21.40;52.20
6654;DHT22;3363;50.942;7.034;2023-05-07T11:26:12;21.50;52.50
6654;DHT22;3363;50.942;7.034;2023-05-07T11:28:40;21.60;50.80
6654;DHT22;3363;50.942;7.034;2023-05-07T11:31:07;21.60;55.30
6654;DHT22;3363;50.942;7.034;2023-05-07T11:33:34;21.70;52.80
6654;DHT22;3363;50.942;7.034;2023-05-07T11:36:02;22.00;51.20
6654;DHT22;3363;50.942;7.034;2023-05-07T11:38:30;21.90;51.00
6654;DHT22;3363;50.942;7.034;2023-05-07T11:41:00;21.80;51.70
6654;DHT22;3363;50.942;7.034;2023-05-07T11:43:29;21.70;51.80
6654;DHT22;3363;50.942;7.034;2023-05-07T11:45:58;21.60;52.90
6654;DHT22;3363;50.942;7.034;2023-05-07T11:48:30;21.50;56.20
6654;DHT22;3363;50.942;7.034;2023-05-07T11:51:00;21.40;55.70
6654;DHT22;3363;50.942;7.034;2023-05-07T11:53:27;21.50;48.40
6654;DHT22;3363;50.942;7.034;2023-05-07T11:55:56;21.40;50.70
6654;DHT22;3363;50.942;7.034;2023-05-07T11:58:23;21.40;49.90
6654;DHT22;3363;50.942;7.034;2023-05-07T12:00:50;21.30;52.50
6654;DHT22;3363;50.942;7.034;2023-05-07T12:03:17;21.00;63.60
6654;DHT22;3363;50.942;7.034;2023-05-07T12:05:44;21.00;59.80
6654;DHT22;3363;50.942;7.034;2023-05-07T12:08:13;20.80;64.00
6654;DHT22;3363;50.942;7.034;2023-05-07T12:10:40;20.70;59.50
6654;DHT22;3363;50.942;7.034;2023-05-07T12:13:15;20.80;61.00
6654;DHT22;3363;50.942;7.034;2023-05-07T12:15:42;20.80;58.50
6654;DHT22;3363;50.942;7.034;2023-05-07T12:18:09;20.90;53.80
6654;DHT22;3363;50.942;7.034;2023-05-07T12:20:36;21.10;55.10
6654;DHT22;3363;50.942;7.034;2023-05-07T12:23:03;21.00;57.90
6654;DHT22;3363;50.942;7.034;2023-05-07T12:25:30;20.90;60.50
6654;DHT22;3363;50.942;7.034;2023-05-07T12:27:57;21.00;57.60
6654;DHT22;3363;50.942;7.034;2023-05-07T12:30:25;21.00;54.10
6654;DHT22;3363;50.942;7.034;2023-05-07T12:32:52;21.10;52.10
6654;DHT22;3363;50.942;7.034;2023-05-07T12:35:25;20.90;55.10
6654;DHT22;3363;50.942;7.034;2023-05-07T12:37:54;20.80;56.20
6654;DHT22;3363;50.942;7.034;2023-05-07T12:40:21;20.80;59.60
6654;DHT22;3363;50.942;7.034;2023-05-07T12:42:48;20.70;58.50
6654;DHT22;3363;50.942;7.034;2023-05-07T12:45:19;20.70;55.80
6654;DHT22;3363;50.942;7.034;2023-05-07T12:47:47;20.80;50.10
6654;DHT22;3363;50.942;7.034;2023-05-07T12:50:15;20.90;55.90
6654;DHT22;3363;50.942;7.034;2023-05-07T12:52:42;20.80;56.90
6654;DHT22;3363;50.942;7.034;2023-05-07T12:55:11;20.80;60.10
6654;DHT22;3363;50.942;7.034;2023-05-07T12:57:38;20.70;55.10
6654;DHT22;3363;50.942;7.034;2023-05-07T13:00:06;20.80;62.10
6654;DHT22;3363;50.942;7.034;2023-05-07T13:02:33;20.60;60.00
6654;DHT22;3363;50.942;7.034;2023-05-07T13:05:02;20.70;67.50
6654;DHT22;3363;50.942;7.034;2023-05-07T13:07:29;20.50;72.90
6654;DHT22;3363;50.942;7.034;2023-05-07T13:09:55;20.40;65.90
6654;DHT22;3363;50.942;7.034;2023-05-07T13:12:22;20.50;72.30
6654;DHT22;3363;50.942;7.034;2023-05-07T13:14:49;20.60;70.40
6654;DHT22;3363;50.942;7.034;2023-05-07T13:17:16;20.70;65.30
6654;DHT22;3363;50.942;7.034;2023-05-07T13:19:43;20.70;64.10
6654;DHT22;3363;50.942;7.034;2023-05-07T13:22:11;20.80;66.80
6654;DHT22;3363;50.942;7.034;2023-05-07T13:24:38;20.80;67.20
6654;DHT22;3363;50.942;7.034;2023-05-07T13:27:06;20.90;64.00
6654;DHT22;3363;50.942;7.034;2023-05-07T13:29:33;20.90;64.50
6654;DHT22;3363;50.942;7.034;2023-05-07T13:32:00;20.90;69.20
6654;DHT22;3363;50.942;7.034;2023-05-07T13:34:27;20.90;65.50
6654;DHT22;3363;50.942;7.034;2023-05-07T13:36:54;20.90;74.30
6654;DHT22;3363;50.942;7.034;2023-05-07T13:39:22;20.90;63.30
6654;DHT22;3363;50.942;7.034;2023-05-07T13:41:49;20.90;58.20
6654;DHT22;3363;50.942;7.034;2023-05-07T13:44:15;20.90;58.70
6654;DHT22;3363;50.942;7.034;2023-05-07T13:46:42;20.80;59.50
6654;DHT22;3363;50.942;7.034;2023-05-07T13:49:09;20.70;59.60
6654;DHT22;3363;50.942;7.034;2023-05-07T13:51:36;20.50;63.90
6654;DHT22;3363;50.942;7.034;2023-05-07T13:54:03;20.40;65.40
6654;DHT22;3363;50.942;7.034;2023-05-07T13:56:31;20.30;69.20
6654;DHT22;3363;50.942;7.034;2023-05-07T13:58:57;20.30;64.80
6654;DHT22;3363;50.942;7.034;2023-05-07T14:01:25;20.20;65.40
6654;DHT22;3363;50.942;7.034;2023-05-07T14:03:52;19.90;67.00
6654;DHT22;3363;50.942;7.034;2023-05-07T14:06:18;19.80;66.30
6654;DHT22;3363;50.942;7.034;2023-05-07T14:08:45;19.60;68.70
6654;DHT22;3363;50.942;7.034;2023-05-07T14:11:12;19.50;75.80
6654;DHT22;3363;50.942;7.034;2023-05-07T14:13:40;19.60;69.50
6654;DHT22;3363;50.942;7.034;2023-05-07T14:16:07;19.70;72.70
6654;DHT22;3363;50.942;7.034;2023-05-07T14:18:33;19.60;71.90
6654;DHT22;3363;50.942;7.034;2023-05-07T14:21:02;19.40;76.60
6654;DHT22;3363;50.942;7.034;2023-05-07T14:23:29;19.00;86.40
6654;DHT22;3363;50.942;7.034;2023-05-07T14:25:55;18.90;96.80
6654;DHT22;3363;50.942;7.034;2023-05-07T14:28:22;19.10;95.50
6654;DHT22;3363;50.942;7.034;2023-05-07T14:30:50;19.00;99.20
6654;DHT22;3363;50.942;7.034;2023-05-07T14:33:17;19.30;95.60
6654;DHT22;3363;50.942;7.034;2023-05-07T14:35:43;19.50;91.10
6654;DHT22;3363;50.942;7.034;2023-05-07T14:38:13;19.30;94.50
6654;DHT22;3363;50.942;7.034;2023-05-07T14:40:40;19.40;94.80
6654;DHT22;3363;50.942;7.034;2023-05-07T14:43:07;19.50;83.10
6654;DHT22;3363;50.942;7.034;2023-05-07T14:45:34;19.70;87.90
6654;DHT22;3363;50.942;7.034;2023-05-07T14:48:02;19.80;81.30
6654;DHT22;3363;50.942;7.034;2023-05-07T14:50:28;19.90;81.90
6654;DHT22;3363;50.942;7.034;2023-05-07T14:52:55;19.90;77.30
6654;DHT22;3363;50.942;7.034;2023-05-07T14:55:22;19.80;73.20
6654;DHT22;3363;50.942;7.034;2023-05-07T14:57:48;19.90;74.60
6654;DHT22;3363;50.942;7.034;2023-05-07T15:00:15;19.80;76.10
6654;DHT22;3363;50.942;7.034;2023-05-07T15:02:42;19.80;76.00
6654;DHT22;3363;50.942;7.034;2023-05-07T15:05:10;19.90;77.20
6654;DHT22;3363;50.942;7.034;2023-05-07T15:07:37;20.00;76.10
6654;DHT22;3363;50.942;7.034;2023-05-07T15:10:04;19.90;75.10
6654;DHT22;3363;50.942;7.034;2023-05-07T15:12:30;20.00;75.20
6654;DHT22;3363;50.942;7.034;2023-05-07T15:14:57;20.00;74.50
6654;DHT22;3363;50.942;7.034;2023-05-07T15:17:24;20.00;76.70
6654;DHT22;3363;50.942;7.034;2023-05-07T15:19:50;20.00;75.20
6654;DHT22;3363;50.942;7.034;2023-05-07T15:22:18;20.00;75.20
6654;DHT22;3363;50.942;7.034;2023-05-07T15:24:46;20.00;73.20
6654;DHT22;3363;50.942;7.034;2023-05-07T15:27:13;20.00;74.80
6654;DHT22;3363;50.942;7.034;2023-05-07T15:29:39;20.00;75.20
6654;DHT22;3363;50.942;7.034;2023-05-07T15:32:06;20.00;74.80
6654;DHT22;3363;50.942;7.034;2023-05-07T15:34:33;20.00;75.20
6654;DHT22;3363;50.942;7.034;2023-05-07T15:36:59;20.00;76.50
6654;DHT22;3363;50.942;7.034;2023-05-07T15:39:27;19.90;78.40
6654;DHT22;3363;50.942;7.034;2023-05-07T15:41:54;19.80;78.40
6654;DHT22;3363;50.942;7.034;2023-05-07T15:44:21;19.90;80.90
6654;DHT22;3363;50.942;7.034;2023-05-07T15:46:47;19.90;80.30
6654;DHT22;3363;50.942;7.034;2023-05-07T15:49:14;19.80;79.50
6654;DHT22;3363;50.942;7.034;2023-05-07T15:51:41;19.70;80.60
6654;DHT22;3363;50.942;7.034;2023-05-07T15:54:08;19.70;82.10
6654;DHT22;3363;50.942;7.034;2023-05-07T15:56:36;19.70;80.90
6654;DHT22;3363;50.942;7.034;2023-05-07T15:59:02;19.80;81.60
6654;DHT22;3363;50.942;7.034;2023-05-07T16:01:29;19.70;81.90
6654;DHT22;3363;50.942;7.034;2023-05-07T16:03:56;19.70;83.40
6654;DHT22;3363;50.942;7.034;2023-05-07T16:06:23;19.70;79.00
6654;DHT22;3363;50.942;7.034;2023-05-07T16:08:49;19.70;79.60
6654;DHT22;3363;50.942;7.034;2023-05-07T16:11:16;19.60;80.20
6654;DHT22;3363;50.942;7.034;2023-05-07T16:13:44;19.60;75.90